createdAt,value
2019-04-23T05:24:51.323Z,28.10
2019-04-23T05:27:29.284Z,10.85
2019-04-23T05:30:02.939Z,7.90
2019-04-23T05:32:32.803Z,7.65
2019-04-23T05:35:04.699Z,8.33
2019-04-23T05:37:50.365Z,9.85
2019-04-23T05:40:22.377Z,7.78
2019-04-23T05:45:15.802Z,7.62
2019-04-23T05:47:56.853Z,7.47
2019-04-23T05:50:26.013Z,10.88
2019-04-23T05:52:54.375Z,7.62
2019-04-23T05:55:18.784Z,7.40
2019-04-23T05:58:15.382Z,8.03
2019-04-23T06:00:40.172Z,7.22
2019-04-23T06:08:11.795Z,7.37
2019-04-23T06:10:54.152Z,6.92
2019-04-23T06:13:22.533Z,7.00
2019-04-23T06:15:55.888Z,7.22
2019-04-23T06:18:30.493Z,6.20
2019-04-23T06:26:24.435Z,7.92
2019-04-23T06:28:33.005Z,6.95
2019-04-23T06:31:07.917Z,7.80
2019-04-23T06:33:41.358Z,6.45
2019-04-23T06:36:12.460Z,7.75
2019-04-23T06:41:23.679Z,6.40
2019-04-23T06:44:00.534Z,6.35
2019-04-23T06:46:29.153Z,6.40
2019-04-23T06:49:00.900Z,6.33
2019-04-23T06:51:36.366Z,6.47
2019-04-23T06:54:06.868Z,6.55
2019-04-23T06:56:43.557Z,6.40
2019-04-23T06:59:12.923Z,6.60
2019-04-23T07:01:46.359Z,6.37
2019-04-23T07:04:22.047Z,6.28
2019-04-23T07:06:56.424Z,6.20
2019-04-23T07:09:13.203Z,6.28
2019-04-23T07:11:47.941Z,5.45
2019-04-23T07:14:30.825Z,6.35
2019-04-23T07:16:58.383Z,5.58
2019-04-23T07:19:37.165Z,5.92
2019-04-23T07:22:14.604Z,5.17
2019-04-23T07:24:34.564Z,5.50
2019-04-23T07:27:11.995Z,6.08
2019-04-23T07:29:40.394Z,6.33
2019-04-23T07:32:11.637Z,6.03
2019-04-23T07:34:59.261Z,4.92
2019-04-23T07:37:20.911Z,5.67
2019-04-23T07:40:11.365Z,5.78
2019-04-23T07:42:39.422Z,5.78
2019-04-23T07:45:19.230Z,6.08
2019-04-23T07:48:10.881Z,5.10
2019-04-23T08:03:37.439Z,5.28
2019-04-23T08:06:05.964Z,5.92
2019-04-23T08:08:43.852Z,5.50
2019-04-23T08:11:30.942Z,6.67
2019-04-23T08:21:30.605Z,5.17
2019-04-23T08:29:27.643Z,5.25
2019-04-23T08:32:05.379Z,5.30
2019-04-23T08:34:38.853Z,5.33
2019-04-23T08:37:05.157Z,5.42
2019-04-23T08:39:42.191Z,5.20
2019-04-23T08:42:27.108Z,4.85
2019-04-23T08:44:44.966Z,4.97
2019-04-23T08:47:20.270Z,5.00
2019-04-23T08:49:49.048Z,4.95
2019-04-23T08:55:11.384Z,5.40
2019-04-23T08:57:26.950Z,6.12
2019-04-23T09:00:02.890Z,5.55
2019-04-23T09:05:11.107Z,5.85
2019-04-23T09:07:35.123Z,5.70
2019-04-23T09:10:15.353Z,5.85
2019-04-23T09:12:43.858Z,5.47
2019-04-23T09:15:26.329Z,6.45
2019-04-23T09:17:56.302Z,7.53
2019-04-23T09:20:31.254Z,6.45
2019-04-23T09:22:53.113Z,5.17
2019-04-23T09:25:36.762Z,5.30
2019-04-23T09:27:59.839Z,5.85
2019-04-23T09:30:32.486Z,5.08
2019-04-23T09:33:13.880Z,6.20
2019-04-23T09:35:54.814Z,5.50
2019-04-23T09:38:32.990Z,5.45
2019-04-23T09:41:25.077Z,5.53
2019-04-23T09:43:54.002Z,5.72
2019-04-23T09:47:00.669Z,5.72
2019-04-23T09:49:14.896Z,4.97
2019-04-23T09:51:49.215Z,7.03
2019-04-23T09:54:38.150Z,5.97
2019-04-23T09:56:51.205Z,6.47
2019-04-23T09:59:33.799Z,8.15
2019-04-23T10:01:47.722Z,6.00
2019-04-23T10:04:14.809Z,4.97
2019-04-23T10:06:38.989Z,5.30
2019-04-23T10:09:10.666Z,5.87
2019-04-23T10:11:42.976Z,6.30
2019-04-23T10:14:14.756Z,5.83
2019-04-23T10:16:47.233Z,5.37
2019-04-23T10:19:18.968Z,6.10
2019-04-23T10:21:51.346Z,6.67
2019-04-23T10:24:23.399Z,6.93
2019-04-23T10:26:55.703Z,6.47
2019-04-23T10:29:38.466Z,6.70
2019-04-23T10:32:09.669Z,6.85
2019-04-23T10:34:53.502Z,6.00
2019-04-23T10:37:13.675Z,6.37
2019-04-23T10:39:49.311Z,5.12
2019-04-23T10:42:18.302Z,5.53
2019-04-23T10:45:19.361Z,6.05
2019-04-23T10:48:21.721Z,5.87
2019-04-23T10:51:20.499Z,5.95
2019-04-23T10:53:46.047Z,5.75
2019-04-23T11:03:56.550Z,7.65
2019-04-23T11:06:23.590Z,6.40
2019-04-23T11:08:53.417Z,5.85
2019-04-23T11:11:29.277Z,5.83
2019-04-23T11:14:00.151Z,6.10
2019-04-23T11:16:50.718Z,5.90
2019-04-23T11:19:04.462Z,5.42
2019-04-23T11:21:56.536Z,5.65
2019-04-23T11:24:23.636Z,6.08
2019-04-23T11:26:49.561Z,6.37
2019-04-23T11:29:24.221Z,7.10
2019-04-23T11:31:52.311Z,6.05
2019-04-23T11:37:06.148Z,5.90
2019-04-23T11:39:32.523Z,7.35
2019-04-23T11:42:08.594Z,6.15
2019-04-23T11:44:43.518Z,5.65
2019-04-23T11:47:27.100Z,7.62
2019-04-23T11:52:19.225Z,7.00
2019-04-23T11:54:43.522Z,5.97
2019-04-23T11:57:32.566Z,6.05
2019-04-23T11:59:52.596Z,6.22
2019-04-23T12:02:32.844Z,7.37
2019-04-23T12:05:17.534Z,6.42
2019-04-23T12:07:41.335Z,5.35
2019-04-23T12:12:49.520Z,6.28
2019-04-23T12:20:35.195Z,5.97
2019-04-23T12:23:19.035Z,5.70
2019-04-23T12:25:42.036Z,7.25
2019-04-23T12:28:06.557Z,7.53
2019-04-23T12:30:45.143Z,6.00
2019-04-23T12:33:20.353Z,4.65
2019-04-23T12:35:43.394Z,5.60
2019-04-23T12:38:22.132Z,9.75
2019-04-23T12:40:53.202Z,5.50
2019-04-23T12:45:52.802Z,6.92
2019-04-23T12:51:28.291Z,5.80
2019-04-23T12:53:37.756Z,6.85
2019-04-23T12:56:11.625Z,6.78
2019-04-23T12:58:32.224Z,6.42
2019-04-23T13:01:13.992Z,5.12
2019-04-23T13:03:45.965Z,7.42
2019-04-23T13:06:20.890Z,6.60
2019-04-23T13:08:53.721Z,6.62
2019-04-23T13:11:31.518Z,6.42
2019-04-23T13:13:58.848Z,6.25
2019-04-23T13:16:53.998Z,7.85
2019-04-23T13:19:14.466Z,7.55
2019-04-23T13:24:26.555Z,7.35
2019-04-23T13:27:02.511Z,6.72
2019-04-23T13:29:44.251Z,9.98
2019-04-23T13:32:04.317Z,8.63
2019-04-23T13:34:48.089Z,9.18
2019-04-23T13:37:25.619Z,7.45
2019-04-23T13:39:44.021Z,8.88
2019-04-23T13:42:31.871Z,8.83
2019-04-23T13:44:54.789Z,7.65
2019-04-23T13:47:50.494Z,7.25
2019-04-23T13:49:58.464Z,7.75
2019-04-23T13:57:57.398Z,6.55
2019-04-23T14:00:34.771Z,6.37
2019-04-23T14:13:23.710Z,8.15
2019-04-23T14:15:49.716Z,8.33
2019-04-23T14:18:34.212Z,6.33
2019-04-23T14:20:38.393Z,6.50
2019-04-23T14:26:04.849Z,8.05
2019-04-23T14:31:00.641Z,7.53
2019-04-23T14:33:37.935Z,7.08
2019-04-23T14:36:03.219Z,7.47
2019-04-23T14:41:21.235Z,8.45
2019-04-23T14:48:51.684Z,6.58
2019-04-23T14:51:32.367Z,6.72
2019-04-23T14:53:47.947Z,6.22
2019-04-23T14:56:21.622Z,6.00
2019-04-23T14:59:02.827Z,7.37
2019-04-23T15:04:03.232Z,7.85
2019-04-23T15:06:43.713Z,7.80
2019-04-23T15:09:19.000Z,7.30
2019-04-23T15:11:48.752Z,7.40
2019-04-23T15:14:08.841Z,6.50
2019-04-23T15:16:44.896Z,9.33
2019-04-23T15:24:38.873Z,7.70
2019-04-23T15:29:31.916Z,7.22
2019-04-23T15:32:19.808Z,7.12
2019-04-23T15:35:02.497Z,8.18
2019-04-23T15:40:04.471Z,7.55
2019-04-23T15:45:08.092Z,7.60
2019-04-23T15:47:57.275Z,8.45
2019-04-23T15:50:29.657Z,7.87
2019-04-23T15:52:58.800Z,8.25
2019-04-23T15:55:27.462Z,7.83
2019-04-23T16:00:38.829Z,7.97
2019-04-23T16:02:42.812Z,7.72
2019-04-23T16:05:37.120Z,7.47
2019-04-23T16:08:48.044Z,8.35
2019-04-23T16:14:04.754Z,7.53
2019-04-23T16:16:26.010Z,7.75
2019-04-23T16:19:09.575Z,8.20
2019-04-23T16:21:47.521Z,7.85
2019-04-23T16:24:13.605Z,7.75
2019-04-23T16:26:50.371Z,8.18
2019-04-23T16:31:45.302Z,8.13
2019-04-23T16:34:27.333Z,7.90
2019-04-23T16:39:22.344Z,7.58
2019-04-23T16:42:17.728Z,8.13
2019-04-23T16:47:10.634Z,8.50
2019-04-23T16:49:47.928Z,7.60
2019-04-23T16:52:20.050Z,8.05
2019-04-23T16:54:54.961Z,7.35
2019-04-23T17:03:36.233Z,6.47
2019-04-23T17:27:02.008Z,10.48
2019-04-23T17:34:30.856Z,8.83
2019-04-23T17:37:07.425Z,8.70
2019-04-23T17:39:28.720Z,9.63
2019-04-23T17:45:23.039Z,8.60
2019-04-23T17:50:13.486Z,10.10
2019-04-23T17:52:44.035Z,10.88
2019-04-23T18:00:25.402Z,13.13
2019-04-23T18:02:59.889Z,8.50
2019-04-23T18:05:40.813Z,8.58
2019-04-23T18:08:01.431Z,8.45
2019-04-23T18:10:51.655Z,7.97
2019-04-23T18:15:35.630Z,8.35
2019-04-23T18:18:10.534Z,7.90
2019-04-23T18:21:03.458Z,8.20
2019-04-23T18:23:36.267Z,7.85
2019-04-23T18:26:16.970Z,9.65
2019-04-23T18:28:46.045Z,8.50
2019-04-23T18:31:14.288Z,8.58
2019-04-23T18:34:08.631Z,8.60
2019-04-23T18:36:19.576Z,7.95
2019-04-23T18:38:59.792Z,7.42
2019-04-23T18:41:29.027Z,8.25
2019-04-23T18:44:15.853Z,9.18
